sensor_id;sensor_type;location;lat;lon;timestamp;temperature;humidity
19920;DHT22;10122;50.074;19.920;2023-08-06T00:00:18;20.20;99.90
19920;DHT22;10122;50.074;19.920;2023-08-06T00:02:43;20.20;99.90
19920;DHT22;10122;50.074;19.920;2023-08-06T00:05:09;20.20;99.90
19920;DHT22;10122;50.074;19.920;2023-08-06T00:07:35;20.20;99.90
19920;DHT22;10122;50.074;19.920;2023-08-06T00:10:01;20.20;99.90
19920;DHT22;10122;50.074;19.920;2023-08-06T00:12:26;20.20;99.90
19920;DHT22;10122;50.074;19.920;2023-08-06T00:14:53;20.10;99.90
19920;DHT22;10122;50.074;19.920;2023-08-06T00:17:19;20.20;99.90
19920;DHT22;10122;50.074;19.920;2023-08-06T00:19:45;20.10;99.90
19920;DHT22;10122;50.074;19.920;2023-08-06T00:22:10;20.10;99.90
19920;DHT22;10122;50.074;19.920;2023-08-06T00:24:36;20.20;99.90
19920;DHT22;10122;50.074;19.920;2023-08-06T00:27:02;20.10;99.90
19920;DHT22;10122;50.074;19.920;2023-08-06T00:29:28;20.10;99.90
19920;DHT22;10122;50.074;19.920;2023-08-06T00:31:54;20.10;99.90
19920;DHT22;10122;50.074;19.920;2023-08-06T00:34:20;20.10;99.90
19920;DHT22;10122;50.074;19.920;2023-08-06T00:36:46;20.10;99.90
19920;DHT22;10122;50.074;19.920;2023-08-06T00:39:11;20.10;99.90
19920;DHT22;10122;50.074;19.920;2023-08-06T00:41:37;20.10;99.90
19920;DHT22;10122;50.074;19.920;2023-08-06T00:44:03;20.10;99.90
19920;DHT22;10122;50.074;19.920;2023-08-06T00:46:29;20.00;99.90
19920;DHT22;10122;50.074;19.920;2023-08-06T00:48:56;20.00;99.90
19920;DHT22;10122;50.074;19.920;2023-08-06T00:51:22;20.00;99.90
19920;DHT22;10122;50.074;19.920;2023-08-06T00:53:50;20.10;99.90
19920;DHT22;10122;50.074;19.920;2023-08-06T00:56:16;20.00;99.90
19920;DHT22;10122;50.074;19.920;2023-08-06T00:58:42;20.00;99.90
19920;DHT22;10122;50.074;19.920;2023-08-06T01:01:08;20.00;99.90
19920;DHT22;10122;50.074;19.920;2023-08-06T01:03:33;20.00;99.90
19920;DHT22;10122;50.074;19.920;2023-08-06T01:06:00;20.10;99.90
19920;DHT22;10122;50.074;19.920;2023-08-06T01:13:54;20.00;99.90
19920;DHT22;10122;50.074;19.920;2023-08-06T01:16:24;20.10;99.90
19920;DHT22;10122;50.074;19.920;2023-08-06T01:18:50;20.00;99.90
19920;DHT22;10122;50.074;19.920;2023-08-06T01:21:17;20.00;99.90
19920;DHT22;10122;50.074;19.920;2023-08-06T01:23:43;20.00;99.90
19920;DHT22;10122;50.074;19.920;2023-08-06T01:26:30;20.00;99.90
19920;DHT22;10122;50.074;19.920;2023-08-06T01:29:08;20.00;99.90
19920;DHT22;10122;50.074;19.920;2023-08-06T01:31:37;20.00;99.90
19920;DHT22;10122;50.074;19.920;2023-08-06T01:34:06;20.00;99.90
19920;DHT22;10122;50.074;19.920;2023-08-06T01:36:32;19.90;99.90
19920;DHT22;10122;50.074;19.920;2023-08-06T01:38:59;20.00;99.90
19920;DHT22;10122;50.074;19.920;2023-08-06T01:41:25;20.00;99.90
19920;DHT22;10122;50.074;19.920;2023-08-06T01:43:50;20.00;99.90
19920;DHT22;10122;50.074;19.920;2023-08-06T01:46:16;19.90;99.90
19920;DHT22;10122;50.074;19.920;2023-08-06T01:48:43;20.00;99.90
19920;DHT22;10122;50.074;19.920;2023-08-06T01:51:08;20.00;99.90
19920;DHT22;10122;50.074;19.920;2023-08-06T01:53:34;20.00;99.90
19920;DHT22;10122;50.074;19.920;2023-08-06T01:56:00;20.00;99.90
19920;DHT22;10122;50.074;19.920;2023-08-06T01:58:26;20.00;99.90
19920;DHT22;10122;50.074;19.920;2023-08-06T02:00:51;20.00;99.90
19920;DHT22;10122;50.074;19.920;2023-08-06T02:03:17;20.00;99.90
19920;DHT22;10122;50.074;19.920;2023-08-06T02:05:43;20.00;99.90
19920;DHT22;10122;50.074;19.920;2023-08-06T02:08:08;19.90;99.90
19920;DHT22;10122;50.074;19.920;2023-08-06T02:10:34;19.90;99.90
19920;DHT22;10122;50.074;19.920;2023-08-06T02:13:00;19.90;99.90
19920;DHT22;10122;50.074;19.920;2023-08-06T02:15:26;20.00;99.90
19920;DHT22;10122;50.074;19.920;2023-08-06T02:17:51;19.90;99.90
19920;DHT22;10122;50.074;19.920;2023-08-06T02:20:17;19.90;99.90
19920;DHT22;10122;50.074;19.920;2023-08-06T02:22:43;19.90;99.90
19920;DHT22;10122;50.074;19.920;2023-08-06T02:25:08;19.90;99.90
19920;DHT22;10122;50.074;19.920;2023-08-06T02:27:34;19.90;99.90
19920;DHT22;10122;50.074;19.920;2023-08-06T02:30:00;19.90;99.90
19920;DHT22;10122;50.074;19.920;2023-08-06T02:32:25;19.90;99.90
19920;DHT22;10122;50.074;19.920;2023-08-06T02:34:51;19.90;99.90
19920;DHT22;10122;50.074;19.920;2023-08-06T02:37:17;19.90;99.90
19920;DHT22;10122;50.074;19.920;2023-08-06T02:39:42;19.90;99.90
19920;DHT22;10122;50.074;19.920;2023-08-06T02:42:08;19.90;99.90
19920;DHT22;10122;50.074;19.920;2023-08-06T02:44:35;19.90;99.90
19920;DHT22;10122;50.074;19.920;2023-08-06T02:47:01;19.90;99.90
19920;DHT22;10122;50.074;19.920;2023-08-06T02:49:27;19.90;99.90
19920;DHT22;10122;50.074;19.920;2023-08-06T02:51:52;19.90;99.90
19920;DHT22;10122;50.074;19.920;2023-08-06T02:54:19;19.90;99.90
19920;DHT22;10122;50.074;19.920;2023-08-06T02:56:45;19.90;99.90
19920;DHT22;10122;50.074;19.920;2023-08-06T02:59:12;19.90;99.90
19920;DHT22;10122;50.074;19.920;2023-08-06T03:01:38;19.90;99.90
19920;DHT22;10122;50.074;19.920;2023-08-06T03:04:04;19.90;99.90
19920;DHT22;10122;50.074;19.920;2023-08-06T03:06:30;19.90;99.90
19920;DHT22;10122;50.074;19.920;2023-08-06T03:08:55;19.90;99.90
19920;DHT22;10122;50.074;19.920;2023-08-06T03:11:21;19.90;99.90
19920;DHT22;10122;50.074;19.920;2023-08-06T03:13:50;19.90;99.90
19920;DHT22;10122;50.074;19.920;2023-08-06T03:16:15;19.90;99.90
19920;DHT22;10122;50.074;19.920;2023-08-06T03:18:41;19.90;99.90
19920;DHT22;10122;50.074;19.920;2023-08-06T03:21:07;19.90;99.90
19920;DHT22;10122;50.074;19.920;2023-08-06T03:23:32;19.90;99.90
19920;DHT22;10122;50.074;19.920;2023-08-06T03:26:04;19.90;99.90
19920;DHT22;10122;50.074;19.920;2023-08-06T03:28:30;19.90;99.90
19920;DHT22;10122;50.074;19.920;2023-08-06T03:31:02;19.90;99.90
19920;DHT22;10122;50.074;19.920;2023-08-06T03:33:28;19.90;99.90
19920;DHT22;10122;50.074;19.920;2023-08-06T03:35:54;19.90;99.90
19920;DHT22;10122;50.074;19.920;2023-08-06T03:38:20;19.90;99.90
19920;DHT22;10122;50.074;19.920;2023-08-06T03:40:46;19.90;99.90
19920;DHT22;10122;50.074;19.920;2023-08-06T03:43:12;19.90;99.90
19920;DHT22;10122;50.074;19.920;2023-08-06T03:45:38;19.90;99.90
19920;DHT22;10122;50.074;19.920;2023-08-06T03:48:04;19.90;99.90
19920;DHT22;10122;50.074;19.920;2023-08-06T03:50:29;19.90;99.90
19920;DHT22;10122;50.074;19.920;2023-08-06T03:52:55;19.90;99.90
19920;DHT22;10122;50.074;19.920;2023-08-06T03:55:21;19.90;99.90
19920;DHT22;10122;50.074;19.920;2023-08-06T03:57:47;19.90;99.90
19920;DHT22;10122;50.074;19.920;2023-08-06T04:00:13;19.90;99.90
19920;DHT22;10122;50.074;19.920;2023-08-06T04:02:39;19.90;99.90
19920;DHT22;10122;50.074;19.920;2023-08-06T04:05:05;19.90;99.90
19920;DHT22;10122;50.074;19.920;2023-08-06T04:07:30;19.90;99.90
19920;DHT22;10122;50.074;19.920;2023-08-06T04:10:01;19.90;99.90
19920;DHT22;10122;50.074;19.920;2023-08-06T04:12:28;20.00;99.90
19920;DHT22;10122;50.074;19.920;2023-08-06T04:14:55;19.90;99.90
19920;DHT22;10122;50.074;19.920;2023-08-06T04:17:21;19.90;99.90
19920;DHT22;10122;50.074;19.920;2023-08-06T04:19:51;19.90;99.90
19920;DHT22;10122;50.074;19.920;2023-08-06T04:22:17;19.90;99.90
19920;DHT22;10122;50.074;19.920;2023-08-06T04:24:43;19.90;99.90
19920;DHT22;10122;50.074;19.920;2023-08-06T04:27:10;19.90;99.90
19920;DHT22;10122;50.074;19.920;2023-08-06T04:29:36;19.90;99.90
19920;DHT22;10122;50.074;19.920;2023-08-06T04:32:03;19.90;99.90
19920;DHT22;10122;50.074;19.920;2023-08-06T04:34:29;19.90;99.90
19920;DHT22;10122;50.074;19.920;2023-08-06T04:36:55;19.90;99.90
19920;DHT22;10122;50.074;19.920;2023-08-06T04:39:20;19.90;99.90
19920;DHT22;10122;50.074;19.920;2023-08-06T04:41:46;19.90;99.90
19920;DHT22;10122;50.074;19.920;2023-08-06T04:44:12;19.90;99.90
19920;DHT22;10122;50.074;19.920;2023-08-06T04:46:37;19.90;99.90
19920;DHT22;10122;50.074;19.920;2023-08-06T04:49:03;19.90;99.90
19920;DHT22;10122;50.074;19.920;2023-08-06T04:51:29;19.90;99.90
19920;DHT22;10122;50.074;19.920;2023-08-06T04:53:54;19.90;99.90
19920;DHT22;10122;50.074;19.920;2023-08-06T04:56:20;19.90;99.90
19920;DHT22;10122;50.074;19.920;2023-08-06T04:58:45;19.90;99.90
19920;DHT22;10122;50.074;19.920;2023-08-06T05:01:11;19.90;99.90
19920;DHT22;10122;50.074;19.920;2023-08-06T05:03:37;19.90;99.90
19920;DHT22;10122;50.074;19.920;2023-08-06T05:06:02;19.90;99.90
19920;DHT22;10122;50.074;19.920;2023-08-06T05:08:28;19.90;99.90
19920;DHT22;10122;50.074;19.920;2023-08-06T05:10:54;19.90;99.90
19920;DHT22;10122;50.074;19.920;2023-08-06T05:13:20;19.90;99.90
19920;DHT22;10122;50.074;19.920;2023-08-06T05:15:46;19.90;99.90
19920;DHT22;10122;50.074;19.920;2023-08-06T05:18:12;19.90;99.90
19920;DHT22;10122;50.074;19.920;2023-08-06T05:20:41;19.90;99.90
19920;DHT22;10122;50.074;19.920;2023-08-06T05:23:07;19.90;99.90
19920;DHT22;10122;50.074;19.920;2023-08-06T05:25:36;19.90;99.90
19920;DHT22;10122;50.074;19.920;2023-08-06T05:28:02;19.90;99.90
19920;DHT22;10122;50.074;19.920;2023-08-06T05:30:28;19.90;99.90
19920;DHT22;10122;50.074;19.920;2023-08-06T05:32:54;19.90;99.90
19920;DHT22;10122;50.074;19.920;2023-08-06T05:35:21;19.90;99.90
19920;DHT22;10122;50.074;19.920;2023-08-06T05:37:47;20.00;99.90
19920;DHT22;10122;50.074;19.920;2023-08-06T05:40:13;19.90;99.90
19920;DHT22;10122;50.074;19.920;2023-08-06T05:42:39;19.90;99.90
19920;DHT22;10122;50.074;19.920;2023-08-06T05:45:05;20.00;99.90
19920;DHT22;10122;50.074;19.920;2023-08-06T05:47:31;20.00;99.90
19920;DHT22;10122;50.074;19.920;2023-08-06T05:49:57;19.90;99.90
19920;DHT22;10122;50.074;19.920;2023-08-06T05:52:23;19.90;99.90
19920;DHT22;10122;50.074;19.920;2023-08-06T05:54:49;20.00;99.90
19920;DHT22;10122;50.074;19.920;2023-08-06T05:57:15;19.90;99.90
19920;DHT22;10122;50.074;19.920;2023-08-06T05:59:42;19.90;99.90
19920;DHT22;10122;50.074;19.920;2023-08-06T06:02:08;20.00;99.90
19920;DHT22;10122;50.074;19.920;2023-08-06T06:04:33;19.90;99.90
19920;DHT22;10122;50.074;19.920;2023-08-06T06:06:59;20.00;99.90
19920;DHT22;10122;50.074;19.920;2023-08-06T06:09:25;19.90;99.90
19920;DHT22;10122;50.074;19.920;2023-08-06T06:11:51;19.90;99.90
19920;DHT22;10122;50.074;19.920;2023-08-06T06:14:17;20.00;99.90
19920;DHT22;10122;50.074;19.920;2023-08-06T06:16:43;19.90;99.90
19920;DHT22;10122;50.074;19.920;2023-08-06T06:19:09;20.00;99.90
19920;DHT22;10122;50.074;19.920;2023-08-06T06:21:35;19.90;99.90
19920;DHT22;10122;50.074;19.920;2023-08-06T06:24:00;20.00;99.90
19920;DHT22;10122;50.074;19.920;2023-08-06T06:26:26;20.00;99.90
19920;DHT22;10122;50.074;19.920;2023-08-06T06:28:52;20.00;99.90
19920;DHT22;10122;50.074;19.920;2023-08-06T06:31:18;20.00;99.90
19920;DHT22;10122;50.074;19.920;2023-08-06T06:33:43;20.00;99.90
19920;DHT22;10122;50.074;19.920;2023-08-06T06:36:09;19.90;99.90
19920;DHT22;10122;50.074;19.920;2023-08-06T06:38:35;20.00;99.90
19920;DHT22;10122;50.074;19.920;2023-08-06T06:41:01;20.00;99.90
19920;DHT22;10122;50.074;19.920;2023-08-06T06:43:28;19.90;99.90
19920;DHT22;10122;50.074;19.920;2023-08-06T06:45:57;20.00;99.90
19920;DHT22;10122;50.074;19.920;2023-08-06T06:48:25;20.00;99.90
19920;DHT22;10122;50.074;19.920;2023-08-06T06:50:51;20.00;99.90
19920;DHT22;10122;50.074;19.920;2023-08-06T06:53:17;19.90;99.90
19920;DHT22;10122;50.074;19.920;2023-08-06T06:55:42;20.00;99.90
19920;DHT22;10122;50.074;19.920;2023-08-06T06:58:08;20.00;99.90
19920;DHT22;10122;50.074;19.920;2023-08-06T07:00:36;20.00;99.90
19920;DHT22;10122;50.074;19.920;2023-08-06T07:03:02;20.00;99.90
19920;DHT22;10122;50.074;19.920;2023-08-06T07:05:28;20.00;99.90
19920;DHT22;10122;50.074;19.920;2023-08-06T07:07:54;20.00;99.90
19920;DHT22;10122;50.074;19.920;2023-08-06T07:10:20;20.00;99.90
19920;DHT22;10122;50.074;19.920;2023-08-06T07:12:45;20.00;99.90
19920;DHT22;10122;50.074;19.920;2023-08-06T07:15:11;20.00;99.90
19920;DHT22;10122;50.074;19.920;2023-08-06T07:17:37;20.00;99.90
19920;DHT22;10122;50.074;19.920;2023-08-06T07:20:03;20.00;99.90
19920;DHT22;10122;50.074;19.920;2023-08-06T07:22:29;20.10;99.90
19920;DHT22;10122;50.074;19.920;2023-08-06T07:24:55;20.10;99.90
19920;DHT22;10122;50.074;19.920;2023-08-06T07:27:21;20.00;99.90
19920;DHT22;10122;50.074;19.920;2023-08-06T07:29:46;20.10;99.90
19920;DHT22;10122;50.074;19.920;2023-08-06T07:32:13;20.10;99.90
19920;DHT22;10122;50.074;19.920;2023-08-06T07:34:39;20.10;99.90
19920;DHT22;10122;50.074;19.920;2023-08-06T07:37:05;20.10;99.90
19920;DHT22;10122;50.074;19.920;2023-08-06T07:39:31;20.10;99.90
19920;DHT22;10122;50.074;19.920;2023-08-06T07:41:57;20.10;99.90
19920;DHT22;10122;50.074;19.920;2023-08-06T07:44:22;20.20;99.90
19920;DHT22;10122;50.074;19.920;2023-08-06T07:46:49;20.20;99.90
19920;DHT22;10122;50.074;19.920;2023-08-06T07:49:15;20.20;99.90
19920;DHT22;10122;50.074;19.920;2023-08-06T07:51:41;20.20;99.90
19920;DHT22;10122;50.074;19.920;2023-08-06T07:54:06;20.10;99.90
19920;DHT22;10122;50.074;19.920;2023-08-06T07:56:32;20.10;99.90
19920;DHT22;10122;50.074;19.920;2023-08-06T07:58:58;20.00;99.90
19920;DHT22;10122;50.074;19.920;2023-08-06T08:01:23;20.00;99.90
19920;DHT22;10122;50.074;19.920;2023-08-06T08:03:49;20.00;99.90
19920;DHT22;10122;50.074;19.920;2023-08-06T08:06:15;20.00;99.90
19920;DHT22;10122;50.074;19.920;2023-08-06T08:08:41;20.00;99.90
19920;DHT22;10122;50.074;19.920;2023-08-06T08:11:06;20.00;99.90
19920;DHT22;10122;50.074;19.920;2023-08-06T08:13:32;19.90;99.90
19920;DHT22;10122;50.074;19.920;2023-08-06T08:15:58;19.90;99.90
19920;DHT22;10122;50.074;19.920;2023-08-06T08:18:25;19.90;99.90
19920;DHT22;10122;50.074;19.920;2023-08-06T08:20:51;19.90;99.90
19920;DHT22;10122;50.074;19.920;2023-08-06T08:23:16;19.90;99.90
19920;DHT22;10122;50.074;19.920;2023-08-06T08:25:42;19.90;99.90
19920;DHT22;10122;50.074;19.920;2023-08-06T08:28:08;19.90;99.90
19920;DHT22;10122;50.074;19.920;2023-08-06T08:30:33;19.90;99.90
19920;DHT22;10122;50.074;19.920;2023-08-06T08:32:59;19.90;99.90
19920;DHT22;10122;50.074;19.920;2023-08-06T08:35:25;19.90;99.90
19920;DHT22;10122;50.074;19.920;2023-08-06T08:37:51;19.90;99.90
19920;DHT22;10122;50.074;19.920;2023-08-06T08:40:17;19.90;99.90
19920;DHT22;10122;50.074;19.920;2023-08-06T08:42:43;19.90;99.90
19920;DHT22;10122;50.074;19.920;2023-08-06T08:45:13;19.90;99.90
19920;DHT22;10122;50.074;19.920;2023-08-06T08:47:40;19.80;99.90
19920;DHT22;10122;50.074;19.920;2023-08-06T08:50:08;19.80;99.90
19920;DHT22;10122;50.074;19.920;2023-08-06T08:52:36;19.80;99.90
19920;DHT22;10122;50.074;19.920;2023-08-06T08:55:02;19.80;99.90
19920;DHT22;10122;50.074;19.920;2023-08-06T08:57:27;19.70;99.90
19920;DHT22;10122;50.074;19.920;2023-08-06T08:59:53;19.70;99.90
19920;DHT22;10122;50.074;19.920;2023-08-06T09:02:21;19.70;99.90
19920;DHT22;10122;50.074;19.920;2023-08-06T09:04:48;19.70;99.90
19920;DHT22;10122;50.074;19.920;2023-08-06T09:07:18;19.70;99.90
19920;DHT22;10122;50.074;19.920;2023-08-06T09:09:46;19.70;99.90
19920;DHT22;10122;50.074;19.920;2023-08-06T09:12:17;19.80;99.90
19920;DHT22;10122;50.074;19.920;2023-08-06T09:14:43;19.80;99.90
19920;DHT22;10122;50.074;19.920;2023-08-06T09:17:09;19.80;99.90
19920;DHT22;10122;50.074;19.920;2023-08-06T09:19:36;19.80;99.90
19920;DHT22;10122;50.074;19.920;2023-08-06T09:22:02;19.80;99.90
19920;DHT22;10122;50.074;19.920;2023-08-06T09:24:28;19.90;99.90
19920;DHT22;10122;50.074;19.920;2023-08-06T09:26:54;19.80;99.90
19920;DHT22;10122;50.074;19.920;2023-08-06T09:29:20;19.80;99.90
19920;DHT22;10122;50.074;19.920;2023-08-06T09:31:50;19.80;99.90
19920;DHT22;10122;50.074;19.920;2023-08-06T09:34:22;19.90;99.90
19920;DHT22;10122;50.074;19.920;2023-08-06T09:36:52;19.90;99.90
19920;DHT22;10122;50.074;19.920;2023-08-06T09:39:20;19.80;99.90
19920;DHT22;10122;50.074;19.920;2023-08-06T09:41:47;19.80;99.90
19920;DHT22;10122;50.074;19.920;2023-08-06T09:44:20;19.80;99.90
19920;DHT22;10122;50.074;19.920;2023-08-06T09:49:21;19.80;99.90
19920;DHT22;10122;50.074;19.920;2023-08-06T09:51:47;19.70;99.90
19920;DHT22;10122;50.074;19.920;2023-08-06T09:54:16;19.70;99.90
19920;DHT22;10122;50.074;19.920;2023-08-06T09:56:43;19.70;99.90
19920;DHT22;10122;50.074;19.920;2023-08-06T09:59:09;19.70;99.90
19920;DHT22;10122;50.074;19.920;2023-08-06T10:01:36;19.70;99.90
19920;DHT22;10122;50.074;19.920;2023-08-06T10:04:04;19.70;99.90
19920;DHT22;10122;50.074;19.920;2023-08-06T10:06:33;19.70;99.90
19920;DHT22;10122;50.074;19.920;2023-08-06T10:08:59;19.70;99.90
19920;DHT22;10122;50.074;19.920;2023-08-06T10:11:25;19.60;99.90
19920;DHT22;10122;50.074;19.920;2023-08-06T10:13:58;19.60;99.90
19920;DHT22;10122;50.074;19.920;2023-08-06T10:16:26;19.60;99.90
19920;DHT22;10122;50.074;19.920;2023-08-06T10:18:53;19.60;99.90
19920;DHT22;10122;50.074;19.920;2023-08-06T10:21:19;19.60;99.90
19920;DHT22;10122;50.074;19.920;2023-08-06T10:23:54;19.60;99.90
19920;DHT22;10122;50.074;19.920;2023-08-06T10:26:20;19.60;99.90
19920;DHT22;10122;50.074;19.920;2023-08-06T10:28:45;19.60;99.90
19920;DHT22;10122;50.074;19.920;2023-08-06T10:31:11;19.60;99.90
19920;DHT22;10122;50.074;19.920;2023-08-06T10:33:45;19.50;99.90
19920;DHT22;10122;50.074;19.920;2023-08-06T10:36:11;19.50;99.90
19920;DHT22;10122;50.074;19.920;2023-08-06T10:38:58;19.50;99.90
19920;DHT22;10122;50.074;19.920;2023-08-06T10:41:30;19.50;99.90
19920;DHT22;10122;50.074;19.920;2023-08-06T10:44:08;19.50;99.90
19920;DHT22;10122;50.074;19.920;2023-08-06T10:46:35;19.50;99.90
19920;DHT22;10122;50.074;19.920;2023-08-06T10:49:01;19.40;99.90
19920;DHT22;10122;50.074;19.920;2023-08-06T10:51:27;19.40;99.90
19920;DHT22;10122;50.074;19.920;2023-08-06T10:53:53;19.40;99.90
19920;DHT22;10122;50.074;19.920;2023-08-06T10:56:21;19.40;99.90
19920;DHT22;10122;50.074;19.920;2023-08-06T10:58:53;19.50;99.90
19920;DHT22;10122;50.074;19.920;2023-08-06T11:01:19;19.40;99.90
19920;DHT22;10122;50.074;19.920;2023-08-06T11:03:46;19.40;99.90
19920;DHT22;10122;50.074;19.920;2023-08-06T11:06:20;19.50;99.90
19920;DHT22;10122;50.074;19.920;2023-08-06T11:08:53;19.50;99.90
19920;DHT22;10122;50.074;19.920;2023-08-06T11:11:21;19.50;99.90
19920;DHT22;10122;50.074;19.920;2023-08-06T11:13:49;19.50;99.90
19920;DHT22;10122;50.074;19.920;2023-08-06T11:16:22;19.50;99.90
19920;DHT22;10122;50.074;19.920;2023-08-06T11:18:51;19.50;99.90
19920;DHT22;10122;50.074;19.920;2023-08-06T11:21:21;19.40;99.90
19920;DHT22;10122;50.074;19.920;2023-08-06T11:23:47;19.40;99.90
19920;DHT22;10122;50.074;19.920;2023-08-06T11:26:21;19.40;99.90
19920;DHT22;10122;50.074;19.920;2023-08-06T11:28:49;19.40;99.90
19920;DHT22;10122;50.074;19.920;2023-08-06T11:31:22;19.40;99.90
19920;DHT22;10122;50.074;19.920;2023-08-06T11:33:53;19.40;99.90
19920;DHT22;10122;50.074;19.920;2023-08-06T11:36:32;19.40;99.90
19920;DHT22;10122;50.074;19.920;2023-08-06T11:38:59;19.40;99.90
19920;DHT22;10122;50.074;19.920;2023-08-06T11:41:34;19.40;99.90
19920;DHT22;10122;50.074;19.920;2023-08-06T11:44:01;19.40;99.90
19920;DHT22;10122;50.074;19.920;2023-08-06T11:46:27;19.50;99.90
19920;DHT22;10122;50.074;19.920;2023-08-06T11:48:58;19.50;99.90
19920;DHT22;10122;50.074;19.920;2023-08-06T11:51:25;19.50;99.90
19920;DHT22;10122;50.074;19.920;2023-08-06T11:53:57;19.50;99.90
19920;DHT22;10122;50.074;19.920;2023-08-06T11:56:24;19.50;99.90
19920;DHT22;10122;50.074;19.920;2023-08-06T11:58:51;19.40;99.90
19920;DHT22;10122;50.074;19.920;2023-08-06T12:01:18;19.40;99.90
19920;DHT22;10122;50.074;19.920;2023-08-06T12:03:43;19.40;99.90
19920;DHT22;10122;50.074;19.920;2023-08-06T12:06:09;19.30;99.90
19920;DHT22;10122;50.074;19.920;2023-08-06T12:08:35;19.30;99.90
19920;DHT22;10122;50.074;19.920;2023-08-06T12:11:01;19.30;99.90
19920;DHT22;10122;50.074;19.920;2023-08-06T12:13:26;19.20;99.90
19920;DHT22;10122;50.074;19.920;2023-08-06T12:15:54;19.30;99.90
19920;DHT22;10122;50.074;19.920;2023-08-06T12:18:19;19.30;99.90
19920;DHT22;10122;50.074;19.920;2023-08-06T12:20:45;19.30;99.90
19920;DHT22;10122;50.074;19.920;2023-08-06T12:23:11;19.30;99.90
19920;DHT22;10122;50.074;19.920;2023-08-06T12:25:41;19.20;99.90
19920;DHT22;10122;50.074;19.920;2023-08-06T12:28:07;19.20;99.90
19920;DHT22;10122;50.074;19.920;2023-08-06T12:30:34;19.20;99.90
19920;DHT22;10122;50.074;19.920;2023-08-06T12:33:00;19.20;99.90
19920;DHT22;10122;50.074;19.920;2023-08-06T12:35:26;19.20;99.90
19920;DHT22;10122;50.074;19.920;2023-08-06T12:37:52;19.20;99.90
19920;DHT22;10122;50.074;19.920;2023-08-06T12:40:20;19.20;99.90
19920;DHT22;10122;50.074;19.920;2023-08-06T12:42:46;19.20;99.90
19920;DHT22;10122;50.074;19.920;2023-08-06T12:45:12;19.20;99.90
19920;DHT22;10122;50.074;19.920;2023-08-06T12:47:37;19.20;99.90
19920;DHT22;10122;50.074;19.920;2023-08-06T12:50:03;19.20;99.90
19920;DHT22;10122;50.074;19.920;2023-08-06T12:52:29;19.20;99.90
19920;DHT22;10122;50.074;19.920;2023-08-06T12:54:55;19.20;99.90
19920;DHT22;10122;50.074;19.920;2023-08-06T12:57:21;19.20;99.90
19920;DHT22;10122;50.074;19.920;2023-08-06T12:59:46;19.20;99.90
19920;DHT22;10122;50.074;19.920;2023-08-06T13:02:13;19.20;99.90
19920;DHT22;10122;50.074;19.920;2023-08-06T13:04:39;19.20;99.90
19920;DHT22;10122;50.074;19.920;2023-08-06T13:07:05;19.20;99.90
19920;DHT22;10122;50.074;19.920;2023-08-06T13:09:32;19.20;99.90
19920;DHT22;10122;50.074;19.920;2023-08-06T13:11:58;19.20;99.90
19920;DHT22;10122;50.074;19.920;2023-08-06T13:14:25;19.20;99.90
19920;DHT22;10122;50.074;19.920;2023-08-06T13:16:51;19.20;99.90
19920;DHT22;10122;50.074;19.920;2023-08-06T13:19:16;19.20;99.90
19920;DHT22;10122;50.074;19.920;2023-08-06T13:24:15;19.20;99.90
19920;DHT22;10122;50.074;19.920;2023-08-06T13:26:41;19.20;99.90
19920;DHT22;10122;50.074;19.920;2023-08-06T13:29:07;19.10;99.90
19920;DHT22;10122;50.074;19.920;2023-08-06T13:31:33;19.10;99.90
19920;DHT22;10122;50.074;19.920;2023-08-06T13:33:59;19.00;99.90
19920;DHT22;10122;50.074;19.920;2023-08-06T13:36:28;19.00;99.90
19920;DHT22;10122;50.074;19.920;2023-08-06T13:38:54;19.00;99.90
19920;DHT22;10122;50.074;19.920;2023-08-06T13:41:20;19.10;99.90
19920;DHT22;10122;50.074;19.920;2023-08-06T13:43:46;19.00;99.90
19920;DHT22;10122;50.074;19.920;2023-08-06T13:46:12;19.00;99.90
19920;DHT22;10122;50.074;19.920;2023-08-06T13:48:42;19.00;99.90
19920;DHT22;10122;50.074;19.920;2023-08-06T13:51:08;19.00;99.90
19920;DHT22;10122;50.074;19.920;2023-08-06T13:53:33;19.00;99.90
19920;DHT22;10122;50.074;19.920;2023-08-06T13:55:59;19.00;99.90
19920;DHT22;10122;50.074;19.920;2023-08-06T13:58:25;19.00;99.90
19920;DHT22;10122;50.074;19.920;2023-08-06T14:00:52;19.00;99.90
19920;DHT22;10122;50.074;19.920;2023-08-06T14:03:20;19.00;99.90
19920;DHT22;10122;50.074;19.920;2023-08-06T14:05:45;19.00;99.90
19920;DHT22;10122;50.074;19.920;2023-08-06T14:08:11;19.00;99.90
19920;DHT22;10122;50.074;19.920;2023-08-06T14:10:37;19.00;99.90
19920;DHT22;10122;50.074;19.920;2023-08-06T14:13:02;19.00;99.90
19920;DHT22;10122;50.074;19.920;2023-08-06T14:15:28;19.00;99.90
19920;DHT22;10122;50.074;19.920;2023-08-06T14:17:54;19.00;99.90
19920;DHT22;10122;50.074;19.920;2023-08-06T14:20:19;19.00;99.90
19920;DHT22;10122;50.074;19.920;2023-08-06T14:22:45;19.00;99.90
19920;DHT22;10122;50.074;19.920;2023-08-06T14:25:11;19.00;99.90
19920;DHT22;10122;50.074;19.920;2023-08-06T14:27:36;18.90;99.90
19920;DHT22;10122;50.074;19.920;2023-08-06T14:30:05;18.70;99.90
19920;DHT22;10122;50.074;19.920;2023-08-06T14:32:33;18.70;99.90
19920;DHT22;10122;50.074;19.920;2023-08-06T14:34:58;18.70;99.90
19920;DHT22;10122;50.074;19.920;2023-08-06T14:37:25;18.70;99.90
19920;DHT22;10122;50.074;19.920;2023-08-06T14:39:51;18.60;99.90
19920;DHT22;10122;50.074;19.920;2023-08-06T14:42:17;18.60;99.90
19920;DHT22;10122;50.074;19.920;2023-08-06T14:44:43;18.60;99.90
19920;DHT22;10122;50.074;19.920;2023-08-06T14:47:09;18.60;99.90
19920;DHT22;10122;50.074;19.920;2023-08-06T14:49:35;18.40;99.90
19920;DHT22;10122;50.074;19.920;2023-08-06T14:52:00;18.50;99.90
19920;DHT22;10122;50.074;19.920;2023-08-06T14:54:27;18.50;99.90
19920;DHT22;10122;50.074;19.920;2023-08-06T14:56:53;18.50;99.90
19920;DHT22;10122;50.074;19.920;2023-08-06T14:59:19;18.60;99.90
19920;DHT22;10122;50.074;19.920;2023-08-06T15:01:44;18.50;99.90
19920;DHT22;10122;50.074;19.920;2023-08-06T15:04:10;18.50;99.90
19920;DHT22;10122;50.074;19.920;2023-08-06T15:06:36;18.50;99.90
19920;DHT22;10122;50.074;19.920;2023-08-06T15:09:01;18.30;99.90
19920;DHT22;10122;50.074;19.920;2023-08-06T15:11:27;18.30;99.90
19920;DHT22;10122;50.074;19.920;2023-08-06T15:13:53;18.30;99.90
19920;DHT22;10122;50.074;19.920;2023-08-06T15:16:18;18.30;99.90
19920;DHT22;10122;50.074;19.920;2023-08-06T15:18:44;18.30;99.90
19920;DHT22;10122;50.074;19.920;2023-08-06T15:21:10;18.50;99.90